createdAt,value
2018-03-18T00:02:20.782Z,59.10
2018-03-18T00:04:49.300Z,59.19
2018-03-18T00:07:17.781Z,59.34
2018-03-18T00:09:46.288Z,59.87
2018-03-18T00:12:14.749Z,59.76
2018-03-18T00:14:43.243Z,59.95
2018-03-18T00:17:11.694Z,60.23
2018-03-18T00:19:40.198Z,60.45
2018-03-18T00:22:08.657Z,59.70
2018-03-18T00:24:37.194Z,49.21
2018-03-18T00:27:05.704Z,55.29
2018-03-18T00:29:34.201Z,53.82
2018-03-18T00:32:02.685Z,54.40
2018-03-18T00:34:31.142Z,54.67
2018-03-18T00:36:59.638Z,53.84
2018-03-18T00:39:28.130Z,52.84
2018-03-18T00:41:56.583Z,53.17
2018-03-18T00:44:25.074Z,52.66
2018-03-18T00:46:53.566Z,51.45
2018-03-18T00:49:22.061Z,52.18
2018-03-18T00:52:02.306Z,52.57
2018-03-18T00:54:30.762Z,51.78
2018-03-18T00:56:59.254Z,52.11
2018-03-18T00:59:27.760Z,52.99
2018-03-18T01:01:56.218Z,53.37
2018-03-18T01:04:24.723Z,53.60
2018-03-18T01:06:53.218Z,52.92
2018-03-18T01:09:21.733Z,53.18
2018-03-18T01:11:50.205Z,53.33
2018-03-18T01:14:18.697Z,52.54
2018-03-18T01:16:47.158Z,52.08
2018-03-18T01:19:15.656Z,51.96
2018-03-18T01:21:44.115Z,52.24
2018-03-18T01:24:12.570Z,51.78
2018-03-18T01:26:41.094Z,50.88
2018-03-18T01:29:09.558Z,48.84
2018-03-18T01:31:38.079Z,48.42
2018-03-18T01:34:06.608Z,46.77
2018-03-18T01:36:35.061Z,47.71
2018-03-18T01:39:03.585Z,48.17
2018-03-18T01:41:32.078Z,47.43
2018-03-18T01:44:00.538Z,47.38
2018-03-18T01:46:29.039Z,44.40
2018-03-18T01:48:57.502Z,43.35
2018-03-18T01:51:26.004Z,41.95
2018-03-18T01:53:54.466Z,42.05
2018-03-18T01:56:22.934Z,40.82
2018-03-18T01:58:51.430Z,40.09
2018-03-18T02:01:19.894Z,40.39
2018-03-18T02:03:48.393Z,36.01
2018-03-18T02:06:16.882Z,35.25
2018-03-18T02:08:45.382Z,34.49
2018-03-18T02:11:13.852Z,37.18
2018-03-18T02:13:42.377Z,36.72
2018-03-18T02:16:10.854Z,36.47
2018-03-18T02:18:39.326Z,36.07
2018-03-18T02:21:07.827Z,35.47
2018-03-18T02:23:36.336Z,36.11
2018-03-18T02:26:04.814Z,35.72
2018-03-18T02:28:33.310Z,36.62
2018-03-18T02:31:01.811Z,37.13
2018-03-18T02:33:30.267Z,37.24
2018-03-18T02:35:58.793Z,37.34
2018-03-18T02:38:27.265Z,36.58
2018-03-18T02:40:55.768Z,36.01
2018-03-18T02:43:24.247Z,36.27
2018-03-18T02:45:52.754Z,36.36
2018-03-18T02:48:21.220Z,35.88
2018-03-18T02:50:49.718Z,36.27
2018-03-18T02:53:18.186Z,35.82
2018-03-18T02:55:46.701Z,35.54
2018-03-18T02:58:15.483Z,35.64
2018-03-18T03:00:43.958Z,35.03
2018-03-18T03:03:12.459Z,35.60
2018-03-18T03:05:40.937Z,35.46
2018-03-18T03:08:09.472Z,35.52
2018-03-18T03:10:37.987Z,35.28
2018-03-18T03:13:06.498Z,35.23
2018-03-18T03:15:34.966Z,36.19
2018-03-18T03:18:03.499Z,36.41
2018-03-18T03:20:32.010Z,36.56
2018-03-18T03:23:00.525Z,36.49
2018-03-18T03:25:29.037Z,37.00
2018-03-18T03:27:57.498Z,37.44
2018-03-18T03:30:25.982Z,37.57
2018-03-18T03:32:54.479Z,36.44
2018-03-18T03:35:22.962Z,36.88
2018-03-18T03:37:51.504Z,36.94
2018-03-18T03:40:19.975Z,36.18
2018-03-18T03:42:48.490Z,35.13
2018-03-18T03:45:16.982Z,35.06
2018-03-18T03:47:45.497Z,33.66
2018-03-18T03:50:14.005Z,34.30
2018-03-18T03:52:42.508Z,34.35
2018-03-18T03:55:11.005Z,34.83
2018-03-18T03:57:39.514Z,35.24
2018-03-18T04:00:08.042Z,35.11
2018-03-18T04:02:36.550Z,35.09
2018-03-18T04:05:05.113Z,35.41
2018-03-18T04:07:33.573Z,35.60
2018-03-18T04:10:02.094Z,34.24
2018-03-18T04:12:30.587Z,32.82
2018-03-18T04:14:59.122Z,32.73
2018-03-18T04:17:27.603Z,33.44
2018-03-18T04:19:56.074Z,33.33
2018-03-18T04:22:24.594Z,33.48
2018-03-18T04:24:53.059Z,33.86
2018-03-18T04:27:21.569Z,33.52
2018-03-18T04:29:50.038Z,33.74
2018-03-18T04:32:18.542Z,33.81
2018-03-18T04:34:47.042Z,33.44
2018-03-18T04:37:15.541Z,32.87
2018-03-18T04:39:44.072Z,32.62
2018-03-18T04:42:12.589Z,32.90
2018-03-18T04:44:41.089Z,33.13
2018-03-18T04:47:09.593Z,32.95
2018-03-18T04:49:38.102Z,32.98
2018-03-18T04:52:06.678Z,33.21
2018-03-18T04:54:35.169Z,33.18
2018-03-18T04:57:04.430Z,33.41
2018-03-18T04:59:32.929Z,32.21
2018-03-18T05:02:01.438Z,31.54
2018-03-18T05:04:29.962Z,31.86
2018-03-18T05:06:58.457Z,32.20
2018-03-18T05:09:27.123Z,31.73
2018-03-18T05:11:55.631Z,32.02
2018-03-18T05:14:24.142Z,31.38
2018-03-18T05:16:52.650Z,30.89
2018-03-18T05:19:21.119Z,30.19
2018-03-18T05:21:49.626Z,28.14
2018-03-18T05:24:18.103Z,27.71
2018-03-18T05:26:46.621Z,28.30
2018-03-18T05:29:15.091Z,28.94
2018-03-18T05:31:43.626Z,29.45
2018-03-18T05:34:12.109Z,29.92
2018-03-18T05:36:40.630Z,29.76
2018-03-18T05:39:09.168Z,30.03
2018-03-18T05:41:37.648Z,30.06
2018-03-18T05:44:06.152Z,30.64
2018-03-18T05:46:34.689Z,32.13
2018-03-18T05:49:03.145Z,33.15
2018-03-18T05:51:31.638Z,33.72
2018-03-18T05:54:00.096Z,34.20
2018-03-18T05:56:28.605Z,33.80
2018-03-18T05:58:57.108Z,32.67
2018-03-18T06:01:25.635Z,33.18
2018-03-18T06:03:54.138Z,34.18
2018-03-18T06:06:22.641Z,32.76
2018-03-18T06:08:51.122Z,34.16
2018-03-18T06:11:19.622Z,34.48
2018-03-18T06:13:48.121Z,34.96
2018-03-18T06:16:16.596Z,35.76
2018-03-18T06:18:45.112Z,36.83
2018-03-18T06:21:13.596Z,35.68
2018-03-18T06:23:42.062Z,35.39
2018-03-18T06:26:10.566Z,36.14
2018-03-18T06:28:39.104Z,36.33
2018-03-18T06:31:07.598Z,35.21
2018-03-18T06:33:36.163Z,33.70
2018-03-18T06:36:04.702Z,33.10
2018-03-18T06:38:33.170Z,33.47
2018-03-18T06:41:01.670Z,33.70
2018-03-18T06:43:31.133Z,33.94
2018-03-18T06:45:59.638Z,34.67
2018-03-18T06:48:28.106Z,34.14
2018-03-18T06:50:56.606Z,35.44
2018-03-18T06:53:25.067Z,35.74
2018-03-18T06:55:53.584Z,35.06
2018-03-18T06:58:22.058Z,34.87
2018-03-18T07:00:50.576Z,34.20
2018-03-18T07:03:19.046Z,33.50
2018-03-18T07:05:47.518Z,33.88
2018-03-18T07:08:16.042Z,34.02
2018-03-18T07:10:44.519Z,34.69
2018-03-18T07:13:13.055Z,35.35
2018-03-18T07:15:41.566Z,35.39
2018-03-18T07:18:10.034Z,35.24
2018-03-18T07:20:38.533Z,34.98
2018-03-18T07:23:07.043Z,35.19
2018-03-18T07:25:35.528Z,33.41
2018-03-18T07:28:04.014Z,34.46
2018-03-18T07:30:32.518Z,34.70
2018-03-18T07:33:00.997Z,34.57
2018-03-18T07:35:29.498Z,35.52
2018-03-18T07:37:57.999Z,35.78
2018-03-18T07:40:26.498Z,35.85
2018-03-18T07:42:54.980Z,36.22
2018-03-18T07:45:23.486Z,36.85
2018-03-18T07:47:51.987Z,37.35
2018-03-18T07:50:20.477Z,37.25
2018-03-18T07:52:48.930Z,37.20
2018-03-18T07:55:17.438Z,37.88
2018-03-18T07:57:45.908Z,38.00
2018-03-18T08:00:14.410Z,38.48
2018-03-18T08:02:42.862Z,38.04
2018-03-18T08:05:11.350Z,38.59
2018-03-18T08:07:39.844Z,38.60
2018-03-18T08:10:08.329Z,38.41
2018-03-18T08:12:36.786Z,38.35
2018-03-18T08:15:05.238Z,38.37
2018-03-18T08:17:33.742Z,38.85
2018-03-18T08:20:02.198Z,39.27
2018-03-18T08:22:30.673Z,39.19
2018-03-18T08:24:59.188Z,38.41
2018-03-18T08:27:27.678Z,38.18
2018-03-18T08:29:56.166Z,38.18
2018-03-18T08:32:24.665Z,38.21
2018-03-18T08:34:53.166Z,38.28
2018-03-18T08:37:21.628Z,38.44
2018-03-18T08:39:50.090Z,38.84
2018-03-18T08:42:28.311Z,38.72
2018-03-18T08:44:56.793Z,38.11
2018-03-18T08:47:25.300Z,37.04
2018-03-18T08:49:53.751Z,37.14
2018-03-18T08:52:22.270Z,36.71
2018-03-18T08:54:50.760Z,36.55
2018-03-18T08:57:19.246Z,36.51
2018-03-18T08:59:47.737Z,35.71
2018-03-18T09:02:16.231Z,34.72
2018-03-18T09:04:44.693Z,34.96
2018-03-18T09:07:13.206Z,35.76
2018-03-18T09:09:41.698Z,36.72
2018-03-18T09:12:10.145Z,37.12
2018-03-18T09:14:38.634Z,37.24
2018-03-18T09:17:07.090Z,37.62
2018-03-18T09:19:35.577Z,37.71
2018-03-18T09:22:04.058Z,36.85
2018-03-18T09:24:32.546Z,36.74
2018-03-18T09:27:01.030Z,36.58
2018-03-18T09:29:29.482Z,36.64
2018-03-18T09:31:57.975Z,36.30
2018-03-18T09:34:26.426Z,36.01
2018-03-18T09:36:54.929Z,36.14
2018-03-18T09:39:23.416Z,36.52
2018-03-18T09:41:51.944Z,36.66
2018-03-18T09:44:20.443Z,37.01
2018-03-18T09:46:48.898Z,37.02
2018-03-18T09:49:17.406Z,36.90
2018-03-18T09:51:45.913Z,37.85
2018-03-18T09:54:14.372Z,39.51
2018-03-18T09:56:42.865Z,40.54
2018-03-18T09:59:11.322Z,41.09
2018-03-18T10:01:39.851Z,41.59
2018-03-18T10:04:08.318Z,42.42
2018-03-18T10:06:36.777Z,43.15
2018-03-18T10:09:05.318Z,44.41
2018-03-18T10:11:33.786Z,44.29
2018-03-18T10:14:02.283Z,44.23
2018-03-18T10:16:30.754Z,44.47
2018-03-18T10:18:59.277Z,44.64
2018-03-18T10:21:27.735Z,45.29
2018-03-18T10:23:56.230Z,45.43
2018-03-18T10:26:24.719Z,45.70
2018-03-18T10:28:53.225Z,45.90
2018-03-18T10:31:21.739Z,45.48
2018-03-18T10:33:50.194Z,45.35
2018-03-18T10:36:18.702Z,44.18
2018-03-18T10:38:47.171Z,44.11
2018-03-18T10:41:15.626Z,44.19
2018-03-18T10:43:44.125Z,44.47
2018-03-18T10:46:12.622Z,44.24
2018-03-18T10:48:41.112Z,44.35
2018-03-18T10:51:09.614Z,44.48
2018-03-18T10:53:38.091Z,46.40
2018-03-18T10:56:06.630Z,46.17
2018-03-18T10:58:35.117Z,45.71
2018-03-18T11:01:09.023Z,45.37
2018-03-18T11:03:37.545Z,46.10
2018-03-18T11:06:14.812Z,46.73
2018-03-18T11:08:43.305Z,47.66
2018-03-18T11:11:11.758Z,47.68
2018-03-18T11:13:40.254Z,49.70
2018-03-18T11:16:08.726Z,48.99
2018-03-18T11:18:37.222Z,49.29
2018-03-18T11:21:05.708Z,49.64
2018-03-18T11:23:34.226Z,49.71
2018-03-18T11:26:02.682Z,48.89
2018-03-18T11:28:31.182Z,47.96
2018-03-18T11:30:59.634Z,47.56
2018-03-18T11:33:28.102Z,49.67
2018-03-18T11:35:56.599Z,49.78
2018-03-18T11:38:25.089Z,49.01
2018-03-18T11:40:53.603Z,50.27
2018-03-18T11:43:22.095Z,51.08
2018-03-18T11:45:50.598Z,51.04
2018-03-18T11:48:19.057Z,51.07
2018-03-18T11:50:47.540Z,52.79
2018-03-18T11:53:16.068Z,53.59
2018-03-18T11:55:44.566Z,55.34
2018-03-18T11:58:13.066Z,57.73
2018-03-18T12:00:41.563Z,57.82
2018-03-18T12:03:10.116Z,59.00
2018-03-18T12:05:38.614Z,60.14
2018-03-18T12:08:07.074Z,60.61
2018-03-18T12:10:35.526Z,61.54
2018-03-18T12:13:04.036Z,62.76
2018-03-18T12:15:32.498Z,63.34
2018-03-18T12:18:01.007Z,65.12
2018-03-18T12:20:29.525Z,65.85
2018-03-18T12:22:58.006Z,66.41
2018-03-18T12:25:26.506Z,67.82
2018-03-18T12:27:54.998Z,68.42
2018-03-18T12:30:23.486Z,67.88
2018-03-18T12:32:51.950Z,68.38
2018-03-18T12:35:20.454Z,68.80
2018-03-18T12:37:48.911Z,69.42
2018-03-18T12:40:34.990Z,69.33
2018-03-18T12:46:03.186Z,70.51
2018-03-18T12:48:31.799Z,70.81
2018-03-18T12:51:00.491Z,70.35
2018-03-18T12:53:29.050Z,70.58
2018-03-18T12:55:57.513Z,70.75
2018-03-18T12:58:26.002Z,69.92
2018-03-18T13:00:54.457Z,69.78
2018-03-18T13:03:22.914Z,67.95
2018-03-18T13:05:51.426Z,66.84
2018-03-18T13:08:19.922Z,66.62
2018-03-18T13:10:48.377Z,65.15
2018-03-18T13:13:17.237Z,65.52
2018-03-18T13:15:45.731Z,65.72
2018-03-18T13:18:14.210Z,65.12
2018-03-18T13:20:42.710Z,65.70
2018-03-18T13:23:11.168Z,66.35
2018-03-18T13:25:39.656Z,66.72
2018-03-18T13:28:08.102Z,65.84
2018-03-18T13:30:36.606Z,65.65
2018-03-18T13:33:05.064Z,65.92
2018-03-18T13:35:33.514Z,65.01
2018-03-18T13:38:02.015Z,64.25
2018-03-18T13:40:30.478Z,65.41
2018-03-18T13:42:59.009Z,65.88
2018-03-18T13:45:27.542Z,64.73
2018-03-18T13:47:56.008Z,65.10
2018-03-18T13:50:24.530Z,66.16
2018-03-18T13:52:52.994Z,66.55
2018-03-18T13:55:21.496Z,66.92
2018-03-18T13:57:49.992Z,67.23
2018-03-18T14:00:18.474Z,66.93
2018-03-18T14:02:46.929Z,66.79
2018-03-18T14:05:15.413Z,66.05
2018-03-18T14:07:43.872Z,66.10
2018-03-18T14:10:12.358Z,66.34
2018-03-18T14:12:40.859Z,66.90
2018-03-18T14:15:09.354Z,66.41
2018-03-18T14:17:37.858Z,66.24
2018-03-18T14:20:06.369Z,64.55
2018-03-18T14:22:34.890Z,63.51
2018-03-18T14:25:03.378Z,63.46
2018-03-18T14:27:31.878Z,61.25
2018-03-18T14:30:00.330Z,62.25
2018-03-18T14:32:28.854Z,61.20
2018-03-18T14:34:57.373Z,61.49
2018-03-18T14:37:25.899Z,61.58
2018-03-18T14:39:54.378Z,61.66
2018-03-18T14:42:22.897Z,61.55
2018-03-18T14:44:51.383Z,60.91
2018-03-18T14:47:19.892Z,60.90
2018-03-18T14:49:48.357Z,58.90
2018-03-18T14:52:16.854Z,59.34
2018-03-18T14:54:45.314Z,59.75
2018-03-18T14:57:13.850Z,59.35
2018-03-18T14:59:42.350Z,58.54
2018-03-18T15:02:10.806Z,58.61
2018-03-18T15:04:39.314Z,59.18
2018-03-18T15:07:07.796Z,59.62
2018-03-18T15:09:36.300Z,59.75
2018-03-18T15:12:04.758Z,60.31
2018-03-18T15:14:33.246Z,60.20
2018-03-18T15:17:01.755Z,60.12
2018-03-18T15:19:30.222Z,60.25
2018-03-18T15:21:58.678Z,60.76
2018-03-18T15:24:27.194Z,61.53
2018-03-18T15:26:55.651Z,61.29
2018-03-18T15:29:24.118Z,61.31
2018-03-18T15:31:52.622Z,61.34
2018-03-18T15:34:21.118Z,61.80
2018-03-18T15:36:49.632Z,61.79
2018-03-18T15:39:18.092Z,62.30
2018-03-18T15:41:46.589Z,62.25
2018-03-18T15:44:15.074Z,62.33
2018-03-18T15:46:43.529Z,62.68
2018-03-18T15:49:12.030Z,62.40
2018-03-18T15:51:40.481Z,62.69
2018-03-18T15:54:09.102Z,62.93
2018-03-18T15:56:37.570Z,62.76
2018-03-18T15:59:06.064Z,62.79
2018-03-18T16:01:34.526Z,63.12
2018-03-18T16:04:03.013Z,62.88
2018-03-18T16:06:31.467Z,63.09
2018-03-18T16:08:59.958Z,63.27
2018-03-18T16:11:28.410Z,63.56
2018-03-18T16:13:56.913Z,64.10
2018-03-18T16:16:25.385Z,64.23
2018-03-18T16:18:53.878Z,64.06
2018-03-18T16:21:22.338Z,64.36
2018-03-18T16:23:50.901Z,63.44
2018-03-18T16:26:19.354Z,62.61
2018-03-18T16:28:47.802Z,62.74
2018-03-18T16:31:17.201Z,62.46
2018-03-18T16:33:45.690Z,62.42
2018-03-18T16:36:14.148Z,62.46
2018-03-18T16:38:42.653Z,62.77
2018-03-18T16:41:11.105Z,63.10
2018-03-18T16:43:39.604Z,63.20
2018-03-18T16:46:08.062Z,63.43
2018-03-18T16:48:36.529Z,63.67
2018-03-18T16:51:05.021Z,63.30
2018-03-18T16:53:33.509Z,63.42
2018-03-18T16:56:01.962Z,63.58
2018-03-18T16:58:30.450Z,63.46
2018-03-18T17:00:58.898Z,63.36
2018-03-18T17:03:27.428Z,63.44
2018-03-18T17:05:55.891Z,63.51
2018-03-18T17:08:24.386Z,63.27
2018-03-18T17:10:52.890Z,63.43
2018-03-18T17:13:21.346Z,63.37
2018-03-18T17:15:49.805Z,63.36
2018-03-18T17:18:18.296Z,63.17
2018-03-18T17:20:46.755Z,63.65
2018-03-18T17:23:15.306Z,64.06
2018-03-18T17:25:43.776Z,64.31
2018-03-18T17:28:12.294Z,64.89
2018-03-18T17:30:40.750Z,65.03
2018-03-18T17:33:09.201Z,65.22
2018-03-18T17:35:37.694Z,65.14
2018-03-18T17:38:06.206Z,64.93
2018-03-18T17:40:34.696Z,65.25
2018-03-18T17:43:03.155Z,66.06
2018-03-18T17:48:42.218Z,66.16
2018-03-18T17:51:22.568Z,66.63
2018-03-18T17:54:03.031Z,67.58
2018-03-18T17:56:37.363Z,66.70
2018-03-18T17:59:05.928Z,68.16
2018-03-18T18:01:34.465Z,68.00
2018-03-18T18:04:02.925Z,67.84
2018-03-18T18:06:31.486Z,67.98
2018-03-18T18:09:00.063Z,68.27
2018-03-18T18:11:28.649Z,68.50
2018-03-18T18:13:57.232Z,68.86
2018-03-18T18:16:25.702Z,69.56
2018-03-18T18:18:54.302Z,69.21
2018-03-18T18:21:22.782Z,69.57
2018-03-18T18:23:51.286Z,69.81
2018-03-18T18:26:19.786Z,69.92
2018-03-18T18:28:48.281Z,69.71
2018-03-18T18:31:16.779Z,69.94
2018-03-18T18:33:45.242Z,70.22
2018-03-18T18:36:13.776Z,70.48
2018-03-18T18:38:42.250Z,70.26
2018-03-18T18:41:10.773Z,70.62
2018-03-18T18:43:39.281Z,71.27
2018-03-18T18:46:07.751Z,71.68
2018-03-18T18:48:36.258Z,71.84
2018-03-18T18:51:04.754Z,71.93
2018-03-18T18:53:33.297Z,71.80
2018-03-18T18:56:01.771Z,72.37
2018-03-18T18:58:30.266Z,72.41
2018-03-18T19:00:58.727Z,72.64
2018-03-18T19:03:27.240Z,72.76
2018-03-18T19:05:55.714Z,72.64
2018-03-18T19:08:24.210Z,72.58
2018-03-18T19:10:52.669Z,72.71
2018-03-18T19:13:21.174Z,72.69
2018-03-18T19:15:49.638Z,72.62
2018-03-18T19:18:18.131Z,73.07
2018-03-18T19:20:46.630Z,72.84
2018-03-18T19:23:15.128Z,73.17
2018-03-18T19:25:43.609Z,73.26
2018-03-18T19:28:12.151Z,73.55
2018-03-18T19:30:40.618Z,73.25
2018-03-18T19:33:09.113Z,73.51
2018-03-18T19:35:37.581Z,73.77
2018-03-18T19:38:06.086Z,73.76
2018-03-18T19:40:34.545Z,74.08
2018-03-18T19:43:03.056Z,73.80
2018-03-18T19:45:31.529Z,74.01
2018-03-18T19:48:00.037Z,73.89
2018-03-18T19:50:28.501Z,73.54
2018-03-18T19:52:57.014Z,73.49
2018-03-18T19:55:25.481Z,73.45
2018-03-18T19:57:53.992Z,73.31
2018-03-18T20:00:23.390Z,73.10
2018-03-18T20:02:51.890Z,72.80
2018-03-18T20:05:20.351Z,72.79
2018-03-18T20:07:48.862Z,72.96
2018-03-18T20:10:17.380Z,72.96
2018-03-18T20:12:45.850Z,73.01
2018-03-18T20:15:14.361Z,73.20
2018-03-18T20:17:42.862Z,72.92
2018-03-18T20:20:11.358Z,72.92
2018-03-18T20:22:39.862Z,72.99
2018-03-18T20:25:08.366Z,73.20
2018-03-18T20:27:36.847Z,73.27
2018-03-18T20:30:05.390Z,73.82
2018-03-18T20:32:33.870Z,74.47
2018-03-18T20:35:02.364Z,73.88
2018-03-18T20:37:30.866Z,72.63
2018-03-18T20:39:59.866Z,71.77
2018-03-18T20:42:28.330Z,71.64
2018-03-18T20:44:56.826Z,70.92
2018-03-18T20:47:25.278Z,70.60
2018-03-18T20:49:53.782Z,69.91
2018-03-18T20:52:22.262Z,70.35
2018-03-18T20:54:50.709Z,70.34
2018-03-18T20:57:19.193Z,70.25
2018-03-18T20:59:47.666Z,70.82
2018-03-18T21:02:16.268Z,70.63
2018-03-18T21:04:44.716Z,70.86
2018-03-18T21:07:13.171Z,70.67
2018-03-18T21:09:41.650Z,70.87
2018-03-18T21:12:10.094Z,71.05
2018-03-18T21:14:38.608Z,71.38
2018-03-18T21:17:07.054Z,71.15
2018-03-18T21:19:35.533Z,70.87
2018-03-18T21:22:03.982Z,70.76
2018-03-18T21:24:32.466Z,70.86
2018-03-18T21:27:00.932Z,71.53
2018-03-18T21:29:29.422Z,72.02
2018-03-18T21:31:57.906Z,71.53
2018-03-18T21:34:38.040Z,71.02
2018-03-18T21:37:06.566Z,71.03
2018-03-18T21:39:35.061Z,71.15
2018-03-18T21:42:03.550Z,70.88
2018-03-18T21:44:32.046Z,71.04
2018-03-18T21:47:00.537Z,70.94
2018-03-18T21:49:28.986Z,71.38
2018-03-18T21:51:57.456Z,71.63
2018-03-18T21:54:25.946Z,71.55
2018-03-18T21:56:54.398Z,71.82
2018-03-18T21:59:22.884Z,71.72
2018-03-18T22:01:51.338Z,71.82
2018-03-18T22:04:19.844Z,71.94
2018-03-18T22:06:48.341Z,72.02
2018-03-18T22:09:16.840Z,72.01
2018-03-18T22:11:45.339Z,71.45
2018-03-18T22:14:13.830Z,71.52
2018-03-18T22:16:42.319Z,71.22
2018-03-18T22:19:10.824Z,71.26
2018-03-18T22:21:39.314Z,71.23
2018-03-18T22:24:07.778Z,71.14
2018-03-18T22:26:36.229Z,71.35
2018-03-18T22:29:04.767Z,71.61
2018-03-18T22:31:33.268Z,71.49
2018-03-18T22:34:01.766Z,70.65
2018-03-18T22:36:30.220Z,70.68
2018-03-18T22:38:58.707Z,71.07
2018-03-18T22:41:27.223Z,70.89
2018-03-18T22:43:55.674Z,69.96
2018-03-18T22:46:24.122Z,69.37
2018-03-18T22:48:52.622Z,69.50
2018-03-18T22:51:21.120Z,69.94
2018-03-18T22:53:49.614Z,70.14
2018-03-18T22:56:18.072Z,70.46
2018-03-18T22:58:46.569Z,70.63
2018-03-18T23:01:15.058Z,70.42
2018-03-18T23:03:43.510Z,70.50
2018-03-18T23:06:12.026Z,70.20
2018-03-18T23:08:40.482Z,70.29
2018-03-18T23:11:08.954Z,70.26
2018-03-18T23:13:37.464Z,69.92
2018-03-18T23:16:05.926Z,70.21
2018-03-18T23:18:34.385Z,70.07
2018-03-18T23:21:02.870Z,70.18
2018-03-18T23:23:31.338Z,70.15
2018-03-18T23:25:59.846Z,69.96
2018-03-18T23:28:28.290Z,70.20
2018-03-18T23:30:56.740Z,70.39
2018-03-18T23:33:25.226Z,70.50
2018-03-18T23:35:53.691Z,70.56
2018-03-18T23:38:22.178Z,70.46
2018-03-18T23:40:50.654Z,70.72
2018-03-18T23:43:19.162Z,70.64
2018-03-18T23:45:47.652Z,70.37
2018-03-18T23:48:16.707Z,70.71
2018-03-18T23:50:48.950Z,70.93
2018-03-18T23:53:17.437Z,70.96
2018-03-18T23:55:45.918Z,71.16
2018-03-18T23:58:14.383Z,70.68
